Terminal Aerodrome Forecast
Issued by NWS Duluth, MN

Home | Current Version | Previous Version | Text Only | Print | Product List | Glossary On
Versions: 1 2 3 4 5 6 7 8 9 10 11 12 13 14 15 16 17 18
000
FTUS43 KDLH 300500
TAFINL
TAF
KINL 300532Z 3006/3106 VRB03KT P6SM SCT100
      TEMPO 3006/3010 5SM BR
     FM301000 27003KT 5SM BR SCT080
      TEMPO 3010/3012 1SM BR
     FM301300 30005KT P6SM SKC
     FM302000 32010KT P6SM SCT050
     FM310100 31008KT P6SM SCT070=

USA.gov is the U.S. government's official web portal to all federal, state and local government web resources and services.